Time;durP1;ratioP1;P1;durP2;ratioP2;P2;SDS_P1;SDS_P2;PMS_P1;PMS_P2;Temp;Humidity;BMP_temperature;BMP_pressure;BME280_temperature;BME280_humidity;BME280_pressure;Samples;Min_cycle;Max_cycle;Signal;HPM_P1;HPM_P2
2022/09/09 00:00:40;;;;;;;5.93;3.65;;;;;;;18.39;100.00;100259.16;5053140;28;20028;-74
2022/09/09 00:03:19;;;;;;;8.70;3.67;;;;;;;18.68;100.00;100358.84;5051972;28;20039;-74
2022/09/09 00:06:03;;;;;;;5.32;3.90;;;;;;;18.30;100.00;100272.56;5053204;28;20068;-73
2022/09/09 00:08:38;;;;;;;6.47;3.55;;;;;;;18.63;100.00;100366.03;5053452;28;20068;-73
2022/09/09 00:11:05;;;;;;;6.90;3.97;;;;;;;18.79;100.00;100349.66;5053206;28;20412;-73
2022/09/09 00:14:02;;;;;;;5.20;3.53;;;;;;;18.84;100.00;100345.06;5052841;28;20135;-73
2022/09/09 00:16:31;;;;;;;6.05;3.70;;;;;;;18.77;100.00;100350.63;5048332;28;20068;-73
2022/09/09 00:19:21;;;;;;;7.47;4.05;;;;;;;18.67;100.00;100363.19;5052747;28;20079;-73
2022/09/09 00:22:16;;;;;;;5.15;3.63;;;;;;;18.66;100.00;100364.09;5052604;28;20117;-73
2022/09/09 00:24:46;;;;;;;5.95;3.78;;;;;;;18.57;100.00;100362.03;5052646;28;20469;-73
2022/09/09 00:27:23;;;;;;;7.18;3.88;;;;;;;18.81;100.00;100365.00;5053009;28;20108;-74
2022/09/09 00:29:58;;;;;;;6.93;3.85;;;;;;;18.69;100.00;100370.84;5053075;28;20029;-73
2022/09/09 00:32:29;;;;;;;5.75;3.75;;;;;;;17.99;100.00;100293.97;5051307;28;20039;-74
2022/09/09 00:35:01;;;;;;;6.97;4.10;;;;;;;18.00;100.00;100257.88;5052760;28;20037;-73
2022/09/09 00:37:31;;;;;;;5.82;4.20;;;;;;;18.55;100.00;100363.88;5052207;28;20115;-73
2022/09/09 00:40:00;;;;;;;5.88;4.03;;;;;;;17.78;100.00;100306.22;5051554;28;20052;-73
2022/09/09 00:42:42;;;;;;;6.68;4.10;;;;;;;18.40;100.00;100372.38;5052141;28;20459;-73
2022/09/09 00:45:28;;;;;;;8.35;4.13;;;;;;;18.37;100.00;100372.56;5052209;28;20087;-73
2022/09/09 00:47:54;;;;;;;7.90;4.15;;;;;;;18.28;100.00;100377.38;5052523;28;20032;-73
2022/09/09 00:50:38;;;;;;;6.15;3.92;;;;;;;18.40;100.00;100366.41;5052080;28;20029;-74
2022/09/09 00:53:22;;;;;;;7.05;3.95;;;;;;;18.46;100.00;100340.38;5050653;28;20056;-73
2022/09/09 00:55:59;;;;;;;5.80;4.22;;;;;;;18.68;100.00;100361.44;5052064;28;20036;-73
2022/09/09 00:58:25;;;;;;;7.32;4.00;;;;;;;18.38;100.00;100350.22;5052619;28;20044;-73
2022/09/09 01:00:56;;;;;;;6.30;3.88;;;;;;;18.03;100.00;100286.00;5052111;28;20033;-74
2022/09/09 01:03:30;;;;;;;9.13;4.13;;;;;;;18.31;100.00;100300.78;5051910;28;20025;-73
2022/09/09 01:06:21;;;;;;;5.63;4.10;;;;;;;18.40;100.00;100350.97;5050558;28;20033;-72
2022/09/09 01:08:52;;;;;;;5.93;3.80;;;;;;;18.46;100.00;100350.66;5051810;28;20032;-73
2022/09/09 01:11:43;;;;;;;10.50;3.80;;;;;;;18.34;100.00;100349.56;5051532;28;20119;-74
2022/09/09 01:14:25;;;;;;;6.28;4.05;;;;;;;18.08;100.00;100339.81;5041677;28;20063;-73
2022/09/09 01:16:54;;;;;;;5.65;3.90;;;;;;;17.72;100.00;100272.28;5051713;28;20123;-73
2022/09/09 01:19:46;;;;;;;5.63;3.85;;;;;;;18.15;100.00;100354.84;5052086;28;20078;-73
2022/09/09 01:22:26;;;;;;;;;;;;;;;18.24;100.00;100350.13;5052048;28;20021;-73
2022/09/09 01:25:27;;;;;;;7.93;4.10;;;;;;;18.46;100.00;100351.47;5051761;28;19909;-73
2022/09/09 01:27:57;;;;;;;7.93;3.75;;;;;;;18.12;100.00;100298.38;5051751;28;20025;-73
2022/09/09 01:30:23;;;;;;;5.18;3.70;;;;;;;18.13;100.00;100358.41;5050224;28;20033;-74
2022/09/09 01:32:53;;;;;;;6.38;4.10;;;;;;;17.43;100.00;100221.53;5050567;28;20043;-73
2022/09/09 01:35:27;;;;;;;6.38;3.78;;;;;;;18.25;100.00;100342.31;5051087;28;20060;-73
2022/09/09 01:37:52;;;;;;;5.38;3.63;;;;;;;18.15;100.00;100325.69;5051198;28;20033;-72
2022/09/09 01:40:18;;;;;;;6.95;3.80;;;;;;;17.81;100.00;100333.50;5051083;28;20151;-73
2022/09/09 01:42:43;;;;;;;7.97;4.13;;;;;;;17.70;100.00;100292.09;5049759;28;20029;-73
2022/09/09 01:45:09;;;;;;;5.72;3.90;;;;;;;18.19;100.00;100337.50;5050968;28;20025;-73
2022/09/09 01:47:35;;;;;;;5.47;4.00;;;;;;;17.63;100.00;100268.44;5049008;28;20082;-72
2022/09/09 01:50:02;;;;;;;4.55;3.72;;;;;;;17.85;100.00;100275.84;5049436;28;20029;-72
2022/09/09 01:52:29;;;;;;;5.50;4.03;;;;;;;17.62;100.00;100294.25;5050718;28;20139;-73
2022/09/09 01:54:55;;;;;;;4.00;3.60;;;;;;;17.16;100.00;100221.19;5049152;28;20068;-72
2022/09/09 01:57:49;;;;;;;5.18;4.00;;;;;;;18.06;100.00;100345.00;5047597;28;20119;-73
2022/09/09 02:00:16;;;;;;;5.50;3.75;;;;;;;17.88;100.00;100337.44;5047954;28;20029;-72
2022/09/09 02:03:00;;;;;;;6.65;3.95;;;;;;;17.98;100.00;100349.75;5050268;28;20384;-71
2022/09/09 02:05:55;;;;;;;6.97;4.10;;;;;;;17.61;100.00;100282.31;5048988;28;20078;-72
2022/09/09 02:08:26;;;;;;;5.90;4.18;;;;;;;17.89;100.00;100345.09;5050185;28;20347;-72
2022/09/09 02:11:14;;;;;;;5.45;3.83;;;;;;;17.90;100.00;100348.50;5049133;28;20044;-73
2022/09/09 02:13:42;;;;;;;4.93;4.07;;;;;;;17.10;100.00;100230.03;5049976;28;20041;-72
2022/09/09 02:16:31;;;;;;;5.40;4.07;;;;;;;17.77;100.00;100298.56;5040947;28;20503;-72
2022/09/09 02:19:13;;;;;;;4.60;4.10;;;;;;;18.06;100.00;100342.44;5041218;28;20043;-72
2022/09/09 02:21:40;;;;;;;6.85;4.25;;;;;;;17.73;100.00;100344.22;5050107;28;20025;-73
2022/09/09 02:24:11;;;;;;;7.68;4.10;;;;;;;17.78;100.00;100347.38;5049518;28;20116;-73
2022/09/09 02:26:41;;;;;;;9.88;4.35;;;;;;;17.28;100.00;100290.78;5050519;28;20039;-72
2022/09/09 02:29:22;;;;;;;6.83;4.20;;;;;;;17.66;100.00;100347.19;5049621;28;20036;-73
2022/09/09 02:31:49;;;;;;;7.63;4.18;;;;;;;17.67;100.00;100323.13;5040439;28;20087;-73
2022/09/09 02:34:20;;;;;;;8.05;4.40;;;;;;;17.16;100.00;100263.13;5050264;28;20084;-73
2022/09/09 02:36:47;;;;;;;6.22;3.95;;;;;;;16.94;100.00;100213.75;5050863;28;20036;-72
2022/09/09 02:39:13;;;;;;;7.88;5.07;;;;;;;17.47;100.00;100323.28;5050672;28;20116;-73
2022/09/09 02:41:41;;;;;;;8.82;4.75;;;;;;;17.04;100.00;100250.91;5050358;28;20067;-73
2022/09/09 02:44:18;;;;;;;6.50;4.63;;;;;;;17.46;100.00;100329.31;5052455;28;20037;-72
2022/09/09 02:46:43;;;;;;;6.90;4.97;;;;;;;17.15;100.00;100323.13;5052831;28;20584;-72
2022/09/09 02:49:40;;;;;;;7.65;4.97;;;;;;;17.35;100.00;100328.13;5054385;28;20029;-72
2022/09/09 02:52:18;;;;;;;6.82;4.88;;;;;;;17.05;100.00;100291.13;5053660;28;20025;-71
2022/09/09 02:54:44;;;;;;;5.53;4.63;;;;;;;16.65;100.00;100260.56;5053990;28;20087;-70
2022/09/09 02:57:23;;;;;;;5.45;4.35;;;;;;;17.34;100.00;100338.47;5053752;28;20029;-73
2022/09/09 02:59:50;;;;;;;7.57;4.70;;;;;;;17.35;100.00;100320.41;5052607;28;20025;-73
2022/09/09 03:02:15;;;;;;;8.52;4.82;;;;;;;17.03;100.00;100330.63;5053925;28;20040;-72
2022/09/09 03:04:44;;;;;;;8.93;4.90;;;;;;;17.02;100.00;100280.97;5053981;28;20029;-73
2022/09/09 03:07:10;;;;;;;7.13;4.50;;;;;;;17.00;100.00;100331.59;5056185;28;20063;-72
2022/09/09 03:09:35;;;;;;;5.30;4.30;;;;;;;16.65;100.00;100270.00;5053812;28;20555;-73
2022/09/09 03:12:01;;;;;;;8.10;4.43;;;;;;;16.77;100.00;100277.97;5053181;28;20112;-72
2022/09/09 03:14:26;;;;;;;7.70;4.50;;;;;;;17.07;100.00;100327.81;5053315;28;20094;-70
2022/09/09 03:16:53;;;;;;;7.43;4.53;;;;;;;16.60;100.00;100198.34;5051603;28;20032;-71
2022/09/09 03:19:19;;;;;;;6.38;5.07;;;;;;;17.40;100.00;100330.47;5052639;28;20033;-72
2022/09/09 03:21:45;;;;;;;7.50;4.70;;;;;;;16.92;100.00;100322.59;5053735;28;20028;-71
2022/09/09 03:24:11;;;;;;;5.97;4.82;;;;;;;16.79;100.00;100290.72;5052942;28;20062;-71
2022/09/09 03:26:37;;;;;;;9.50;5.47;;;;;;;17.01;100.00;100338.41;5052316;28;20053;-72
2022/09/09 03:29:05;;;;;;;7.60;5.20;;;;;;;17.06;100.00;100320.19;5053210;28;20040;-71
2022/09/09 03:31:30;;;;;;;8.55;5.57;;;;;;;16.59;100.00;100263.44;5051380;28;20021;-71
2022/09/09 03:33:58;;;;;;;11.05;4.65;;;;;;;17.52;100.00;100291.31;5053689;28;20028;-70
2022/09/09 03:36:23;;;;;;;6.65;4.78;;;;;;;16.76;100.00;100276.28;5053730;28;20567;-72
2022/09/09 03:38:50;;;;;;;7.82;5.63;;;;;;;16.39;100.00;100261.78;5051923;28;20119;-73
2022/09/09 03:41:15;;;;;;;9.95;6.00;;;;;;;16.63;100.00;100318.88;5053460;28;20037;-73
2022/09/09 03:43:41;;;;;;;6.43;5.45;;;;;;;16.60;100.00;100326.69;5053232;28;20128;-75
2022/09/09 03:46:07;;;;;;;9.60;5.50;;;;;;;16.83;100.00;100323.88;5053331;28;20029;-73
2022/09/09 03:48:32;;;;;;;11.52;5.60;;;;;;;16.69;100.00;100312.59;5053017;28;20403;-73
2022/09/09 03:51:00;;;;;;;10.68;5.85;;;;;;;16.83;100.00;100287.09;5051770;28;20037;-71
2022/09/09 03:53:25;;;;;;;8.82;5.10;;;;;;;16.86;100.00;100313.44;5051289;28;20044;-74
2022/09/09 03:55:59;;;;;;;10.05;6.07;;;;;;;16.44;100.00;100205.06;5050561;28;20035;-75
2022/09/09 03:58:26;;;;;;;11.18;6.07;;;;;;;17.01;100.00;100327.31;5052542;28;20034;-70
2022/09/09 04:00:58;;;;;;;7.90;6.40;;;;;;;16.73;100.00;100261.03;5052041;28;20029;-72
2022/09/09 04:03:24;;;;;;;8.55;6.22;;;;;;;16.91;100.00;100339.75;5052519;28;20450;-73
2022/09/09 04:05:51;;;;;;;7.28;6.05;;;;;;;16.76;100.00;100321.66;5051239;28;20037;-71
2022/09/09 04:08:18;;;;;;;7.70;5.78;;;;;;;16.92;100.00;100328.56;5051144;28;20025;-73
2022/09/09 04:10:48;;;;;;;9.95;6.20;;;;;;;16.53;100.00;100286.00;5052576;28;20021;-73
2022/09/09 04:13:16;;;;;;;6.72;5.70;;;;;;;17.01;100.00;100332.44;5052523;28;20116;-74
2022/09/09 04:15:42;;;;;;;7.85;6.10;;;;;;;16.43;100.00;100313.78;5052289;28;20496;-73
2022/09/09 04:18:07;;;;;;;8.55;5.15;;;;;;;17.66;100.00;100332.59;5051561;28;20051;-71
2022/09/09 04:20:33;;;;;;;8.63;5.43;;;;;;;16.80;100.00;100269.25;5050700;28;20028;-72
2022/09/09 04:22:58;;;;;;;9.07;5.18;;;;;;;16.32;100.00;100265.53;5052152;28;20059;-71
2022/09/09 04:25:24;;;;;;;8.32;5.22;;;;;;;17.20;100.00;100333.19;5052584;28;20538;-72
2022/09/09 04:27:58;;;;;;;8.20;5.10;;;;;;;17.10;100.00;100327.69;5051019;28;20037;-71
2022/09/09 04:30:24;;;;;;;6.07;4.78;;;;;;;17.35;100.00;100347.88;5031496;28;20034;-74
2022/09/09 04:32:51;;;;;;;8.77;4.75;;;;;;;17.32;100.00;100355.72;5031720;28;20045;-71
2022/09/09 04:35:16;;;;;;;8.80;5.00;;;;;;;17.25;100.00;100310.69;5031598;28;20072;-72
2022/09/09 04:37:42;;;;;;;10.25;5.50;;;;;;;17.03;100.00;100320.34;5031389;28;20060;-70
2022/09/09 04:40:09;;;;;;;5.95;5.07;;;;;;;17.06;100.00;100341.59;5032611;28;20037;-71
2022/09/09 04:42:38;;;;;;;12.18;5.18;;;;;;;20.31;100.00;100365.59;5040507;28;20091;-76
2022/09/09 04:45:05;;;;;;;9.55;4.75;;;;;;;18.12;100.00;100377.34;5031836;28;20067;-73
2022/09/09 04:47:30;;;;;;;7.55;4.45;;;;;;;17.86;100.00;100375.28;5049324;28;20060;-73
2022/09/09 04:49:56;;;;;;;7.10;4.80;;;;;;;17.77;100.00;100343.13;5048963;28;20063;-72
2022/09/09 04:52:22;;;;;;;9.23;4.65;;;;;;;17.67;100.00;100361.72;5050371;28;20049;-72
2022/09/09 04:54:48;;;;;;;8.70;5.00;;;;;;;17.19;100.00;100239.84;5051588;28;20089;-73
2022/09/09 04:57:13;;;;;;;6.85;4.38;;;;;;;17.53;100.00;100323.00;5051742;28;20029;-73
2022/09/09 04:59:39;;;;;;;8.88;4.75;;;;;;;17.88;100.00;100352.88;5050910;28;20028;-72
2022/09/09 05:02:05;;;;;;;6.60;4.47;;;;;;;18.08;100.00;100373.28;5050218;28;20222;-72
2022/09/09 05:04:32;;;;;;;5.93;4.38;;;;;;;18.24;100.00;100368.13;5050727;28;20021;-73
2022/09/09 05:06:59;;;;;;;10.40;4.90;;;;;;;17.72;100.00;100246.56;5049335;28;20025;-73
2022/09/09 05:09:25;;;;;;;11.68;4.93;;;;;;;18.24;100.00;100293.50;5050605;28;20487;-73
2022/09/09 05:11:51;;;;;;;6.95;4.22;;;;;;;18.44;100.00;100309.53;5050503;28;20063;-73
2022/09/09 05:14:17;;;;;;;8.85;4.45;;;;;;;19.05;100.00;100382.50;5051141;28;20029;-72
2022/09/09 05:16:44;;;;;;;12.50;5.13;;;;;;;19.16;100.00;100353.53;5049563;28;20083;-73
2022/09/09 05:19:10;;;;;;;10.00;5.35;;;;;;;19.41;100.00;100377.03;5051861;28;20029;-74
2022/09/09 05:21:35;;;;;;;10.73;5.10;;;;;;;19.02;100.00;100291.63;5051946;28;20051;-73
2022/09/09 05:24:01;;;;;;;10.27;5.47;;;;;;;19.62;100.00;100387.84;5051620;28;20025;-73
2022/09/09 05:26:26;;;;;;;20.13;8.30;;;;;;;19.87;100.00;100332.13;5051363;28;20078;-73
2022/09/09 05:28:52;;;;;;;14.82;5.93;;;;;;;19.74;100.00;100325.22;5050099;28;20033;-73
2022/09/09 05:31:18;;;;;;;11.30;6.28;;;;;;;20.30;100.00;100381.97;5051086;28;20064;-73
2022/09/09 05:33:48;;;;;;;16.67;8.10;;;;;;;20.14;100.00;100364.94;5051286;28;20070;-73
2022/09/09 05:36:18;;;;;;;18.20;7.50;;;;;;;19.81;100.00;100300.69;5050747;28;20032;-71
2022/09/09 05:38:45;;;;;;;20.57;9.70;;;;;;;20.35;100.00;100322.31;5051213;28;20037;-72
2022/09/09 05:41:11;;;;;;;10.27;5.90;;;;;;;20.14;100.00;100368.34;5051039;28;20060;-71
2022/09/09 05:43:38;;;;;;;8.73;5.50;;;;;;;20.22;100.00;100353.25;5049075;28;20028;-72
2022/09/09 05:46:13;;;;;;;5.88;4.70;;;;;;;19.72;100.00;100296.91;5050621;28;20063;-72
2022/09/09 05:48:46;;;;;;;9.27;4.95;;;;;;;20.87;100.00;100369.78;5050664;28;20036;-71
2022/09/09 05:51:15;;;;;;;6.90;4.70;;;;;;;20.80;100.00;100372.84;5049289;28;20075;-72
2022/09/09 05:53:41;;;;;;;10.38;5.35;;;;;;;20.65;100.00;100330.72;5049033;28;20048;-71
2022/09/09 05:56:18;;;;;;;13.95;8.02;;;;;;;21.19;100.00;100322.00;5050322;28;20037;-72
2022/09/09 05:58:46;;;;;;;4.97;4.25;;;;;;;20.93;100.00;100377.13;5050571;28;20074;-71
2022/09/09 06:01:21;;;;;;;6.72;3.80;;;;;;;20.64;100.00;100353.13;5050496;28;20542;-72
2022/09/09 06:03:48;;;;;;;5.85;4.35;;;;;;;21.34;100.00;100333.91;5050610;28;20052;-72
2022/09/09 06:06:25;;;;;;;7.13;4.43;;;;;;;21.68;100.00;100376.47;5049024;28;20059;-72
2022/09/09 06:08:53;;;;;;;7.60;4.50;;;;;;;21.79;100.00;100386.91;5050199;28;20086;-72
2022/09/09 06:11:22;;;;;;;6.43;4.50;;;;;;;21.69;100.00;100352.22;5050783;28;20082;-72
2022/09/09 06:13:50;;;;;;;6.88;4.10;;;;;;;21.80;100.00;100329.03;5050323;28;20408;-71
2022/09/09 06:16:18;;;;;;;8.80;4.60;;;;;;;22.24;100.00;100331.16;5049160;28;20036;-71
2022/09/09 06:18:44;;;;;;;9.13;4.28;;;;;;;21.44;100.00;100336.69;5051612;28;20040;-71
2022/09/09 06:21:19;;;;;;;6.78;4.00;;;;;;;22.88;100.00;100368.88;5052960;28;20021;-72
2022/09/09 06:23:45;;;;;;;9.75;5.07;;;;;;;22.92;100.00;100391.91;5050478;28;20033;-71
2022/09/09 06:26:13;;;;;;;7.18;4.50;;;;;;;22.16;100.00;100342.09;5050218;28;20029;-72
2022/09/09 06:28:38;;;;;;;6.40;3.90;;;;;;;21.78;100.00;100283.47;5050639;28;20033;-72
2022/09/09 06:31:07;;;;;;;7.53;4.13;;;;;;;22.53;100.00;100332.53;5048853;28;20033;-72
2022/09/09 06:33:40;;;;;;;5.82;3.67;;;;;;;22.30;100.00;100334.13;5050380;28;20057;-72
2022/09/09 06:36:11;;;;;;;6.50;3.83;;;;;;;23.28;100.00;100399.63;5049973;28;20033;-72
2022/09/09 06:38:37;;;;;;;8.63;3.60;;;;;;;23.78;100.00;100382.06;5050683;28;20063;-72
2022/09/09 06:41:05;;;;;;;7.05;4.38;;;;;;;22.69;100.00;100309.78;5050167;28;20090;-72
2022/09/09 06:43:31;;;;;;;7.15;3.65;;;;;;;23.06;100.00;100342.44;5050135;28;20021;-72
2022/09/09 06:45:59;;;;;;;7.15;4.13;;;;;;;24.01;100.00;100339.53;5050260;28;20029;-72
2022/09/09 06:48:28;;;;;;;9.77;5.38;;;;;;;22.97;100.00;100360.47;5050347;28;20483;-73
2022/09/09 06:51:05;;;;;;;7.15;4.53;;;;;;;24.36;100.00;100370.63;5050401;28;20036;-72
2022/09/09 06:53:33;;;;;;;13.65;5.93;;;;;;;24.16;100.00;100327.16;5049800;28;20500;-73
2022/09/09 06:56:00;;;;;;;5.30;3.47;;;;;;;23.86;100.00;100371.91;5048825;28;20123;-73
2022/09/09 06:58:26;;;;;;;7.65;3.60;;;;;;;24.08;100.00;100344.19;5049684;28;20078;-73
2022/09/09 07:00:51;;;;;;;5.03;3.33;;;;;;;23.99;100.00;100310.25;5049971;28;20505;-73
2022/09/09 07:03:17;;;;;;;7.25;3.90;;;;;;;24.86;100.00;100376.06;5049835;28;20060;-73
2022/09/09 07:05:44;;;;;;;9.43;4.03;;;;;;;24.67;100.00;100342.06;5048733;28;20475;-73
2022/09/09 07:08:10;;;;;;;10.23;3.35;;;;;;;24.13;100.00;100333.41;5050009;28;20025;-73
2022/09/09 07:10:36;;;;;;;8.65;3.42;;;;;;;25.69;100.00;100384.75;5050046;28;20044;-73
2022/09/09 07:13:02;;;;;;;8.23;3.65;;;;;;;25.33;100.00;100369.59;5049991;28;20032;-73
2022/09/09 07:15:27;;;;;;;8.48;3.42;;;;;;;25.44;100.00;100343.50;5049590;28;20036;-72
2022/09/09 07:17:53;;;;;;;7.18;3.40;;;;;;;25.51;100.00;100396.72;5050373;28;20476;-73
2022/09/09 07:20:20;;;;;;;10.50;3.50;;;;;;;25.18;100.00;100401.25;5048825;28;20033;-73
2022/09/09 07:22:45;;;;;;;8.75;3.80;;;;;;;25.98;100.00;100391.91;5049544;28;20514;-72
2022/09/09 07:25:11;;;;;;;7.80;3.40;;;;;;;25.63;100.00;100387.09;5049708;28;20029;-73
2022/09/09 07:27:36;;;;;;;7.28;3.45;;;;;;;24.89;100.00;100305.56;5048585;28;20474;-73
2022/09/09 07:30:03;;;;;;;8.02;3.35;;;;;;;26.14;100.00;100395.72;5048779;28;20040;-73
2022/09/09 07:32:30;;;;;;;9.00;3.55;;;;;;;25.67;100.00;100311.13;5053336;28;20032;-73
2022/09/09 07:34:55;;;;;;;6.80;3.20;;;;;;;24.94;100.00;100375.44;5053255;28;20028;-73
2022/09/09 07:37:21;;;;;;;7.07;3.00;;;;;;;25.79;100.00;100380.44;5052235;28;20399;-73
2022/09/09 07:39:47;;;;;;;7.03;3.17;;;;;;;26.40;100.00;100316.03;5051963;28;20072;-73
2022/09/09 07:42:13;;;;;;;7.40;3.30;;;;;;;25.45;97.75;100326.09;5052961;28;20029;-74
2022/09/09 07:44:39;;;;;;;7.22;2.83;;;;;;;25.99;87.90;100336.22;5052968;28;20040;-73
2022/09/09 07:47:05;;;;;;;7.20;3.38;;;;;;;25.87;90.16;100366.75;5053018;28;20032;-73
2022/09/09 07:49:32;;;;;;;11.13;3.55;;;;;;;25.69;97.02;100369.13;5052945;28;20033;-74
2022/09/09 07:51:58;;;;;;;6.85;3.33;;;;;;;25.89;100.00;100327.53;5052873;28;20120;-74
2022/09/09 07:54:23;;;;;;;8.07;3.30;;;;;;;25.91;93.91;100386.38;5052876;28;20541;-73
2022/09/09 07:56:50;;;;;;;7.28;3.63;;;;;;;26.37;91.45;100380.69;5052870;28;20029;-73
2022/09/09 07:59:16;;;;;;;7.10;3.80;;;;;;;26.73;90.10;100307.03;5052431;28;20025;-74
2022/09/09 08:01:45;;;;;;;7.50;4.28;;;;;;;26.74;87.29;100316.50;5052606;28;20036;-73
2022/09/09 08:04:15;;;;;;;6.20;3.38;;;;;;;26.93;82.02;100319.13;5052747;28;20491;-73
2022/09/09 08:06:42;;;;;;;9.38;3.65;;;;;;;26.74;82.08;100388.75;5052414;28;20070;-73
2022/09/09 08:09:09;;;;;;;7.57;3.47;;;;;;;25.68;87.07;100323.22;5052672;28;20094;-73
2022/09/09 08:11:35;;;;;;;9.25;3.40;;;;;;;26.86;77.96;100333.66;5052888;28;20029;-74
2022/09/09 08:14:02;;;;;;;7.07;3.40;;;;;;;27.10;79.21;100378.47;5052368;28;20474;-73
2022/09/09 08:16:31;;;;;;;7.57;3.22;;;;;;;26.71;75.25;100337.66;5052412;28;20068;-73
2022/09/09 08:18:57;;;;;;;7.47;3.60;;;;;;;27.44;72.81;100316.97;5052735;28;20076;-73
2022/09/09 08:21:27;;;;;;;6.68;2.92;;;;;;;27.84;69.13;100373.38;5050994;28;20483;-73
2022/09/09 08:23:55;;;;;;;4.55;3.03;;;;;;;27.24;68.48;100315.34;5052329;28;20154;-73
2022/09/09 08:26:34;;;;;;;5.80;3.10;;;;;;;27.55;63.82;100331.69;5050813;28;20021;-72
2022/09/09 08:29:00;;;;;;;6.38;3.10;;;;;;;28.18;67.46;100379.75;5052227;28;20036;-73
2022/09/09 08:31:29;;;;;;;7.40;3.80;;;;;;;28.22;64.44;100368.03;5052264;28;20037;-73
2022/09/09 08:33:56;;;;;;;7.85;4.40;;;;;;;27.34;64.30;100269.16;5052506;28;20025;-73
2022/09/09 08:36:25;;;;;;;8.25;4.20;;;;;;;27.99;65.96;100377.22;5050715;28;20415;-73
2022/09/09 08:38:55;;;;;;;11.48;4.18;;;;;;;27.42;66.20;100318.91;5051722;28;20118;-73
2022/09/09 08:41:39;;;;;;;10.43;4.05;;;;;;;27.72;65.58;100371.91;5050664;28;20048;-73
2022/09/09 08:44:28;;;;;;;11.73;4.40;;;;;;;28.45;64.05;100369.25;5050502;28;20590;-72
2022/09/09 08:46:56;;;;;;;8.77;4.28;;;;;;;28.61;63.27;100368.63;5032241;28;20048;-72
2022/09/09 08:49:38;;;;;;;13.55;4.90;;;;;;;28.87;60.66;100366.91;5051500;28;20044;-72
2022/09/09 08:52:12;;;;;;;8.60;3.40;;;;;;;28.58;60.42;100312.19;5051581;28;20025;-72
2022/09/09 08:54:38;;;;;;;5.25;3.47;;;;;;;28.78;58.75;100358.16;5050391;28;20036;-72
2022/09/09 08:57:14;;;;;;;3.30;3.00;;;;;;;27.56;59.66;100248.84;5051645;28;20021;-73
2022/09/09 08:59:40;;;;;;;4.97;2.95;;;;;;;26.89;64.86;100325.56;5051751;28;20094;-73
2022/09/09 09:02:42;;;;;;;5.93;2.97;;;;;;;28.76;58.29;100354.06;5050132;28;20028;-72
2022/09/09 09:05:24;;;;;;;5.68;2.80;;;;;;;28.23;64.00;100328.63;5050298;28;20483;-71
2022/09/09 09:08:13;;;;;;;4.40;2.60;;;;;;;27.58;61.63;100331.38;5043071;28;20050;-70
2022/09/09 09:10:50;;;;;;;4.57;2.85;;;;;;;27.92;60.86;100323.81;5050961;28;20037;-70
2022/09/09 09:13:24;;;;;;;6.65;3.20;;;;;;;28.58;57.83;100322.66;5043489;28;20033;-71
2022/09/09 09:15:58;;;;;;;3.95;2.70;;;;;;;28.43;55.77;100299.72;5031536;28;20576;-74
2022/09/09 09:18:23;;;;;;;11.82;3.38;;;;;;;29.28;55.99;100320.97;5032209;28;20562;-72
2022/09/09 09:20:58;;;;;;;7.20;2.80;;;;;;;28.05;58.77;100308.63;5049667;28;20120;-73
2022/09/09 09:23:30;;;;;;;6.25;2.80;;;;;;;28.46;57.70;100263.63;5051155;28;20039;-72
2022/09/09 09:26:00;;;;;;;5.13;2.60;;;;;;;28.73;55.17;100300.19;5049773;28;20514;-73
2022/09/09 09:28:28;;;;;;;3.35;2.22;;;;;;;28.78;56.89;100308.41;5049911;28;20033;-73
2022/09/09 09:30:58;;;;;;;6.32;2.75;;;;;;;28.00;56.44;100308.25;5051597;28;20514;-72
2022/09/09 09:33:32;;;;;;;6.80;3.22;;;;;;;29.40;52.53;100303.97;5044553;28;20041;-75
2022/09/09 09:35:59;;;;;;;3.38;2.70;;;;;;;28.34;54.91;100256.97;5049181;28;20040;-74
2022/09/09 09:38:27;;;;;;;5.70;2.80;;;;;;;28.62;55.00;100297.00;5049091;28;20036;-73
2022/09/09 09:40:58;;;;;;;5.85;2.70;;;;;;;28.72;53.82;100266.31;5051390;28;20025;-72
2022/09/09 09:43:29;;;;;;;6.13;2.88;;;;;;;28.60;54.64;100236.13;5051460;28;20025;-73
2022/09/09 09:45:57;;;;;;;5.28;3.40;;;;;;;29.48;52.27;100277.81;5050991;28;20047;-73
2022/09/09 09:48:24;;;;;;;4.53;3.10;;;;;;;29.13;55.08;100268.25;5050408;28;20446;-73
2022/09/09 09:50:53;;;;;;;8.98;3.45;;;;;;;29.68;53.07;100282.66;5051368;28;20036;-73
2022/09/09 09:53:28;;;;;;;5.47;2.70;;;;;;;30.02;53.53;100281.81;5048274;28;20139;-74
2022/09/09 09:56:06;;;;;;;5.38;2.97;;;;;;;29.02;51.40;100237.06;5030921;28;20033;-72
2022/09/09 09:58:49;;;;;;;6.40;2.70;;;;;;;29.96;52.32;100267.53;5030523;28;20112;-73
2022/09/09 10:01:35;;;;;;;4.68;2.90;;;;;;;29.91;50.33;100288.22;5030823;28;20163;-72
2022/09/09 10:04:13;;;;;;;4.63;3.65;;;;;;;30.65;49.39;100273.25;5029485;28;20026;-73
2022/09/09 10:06:39;;;;;;;5.10;2.95;;;;;;;30.52;48.67;100269.50;5029476;28;20040;-74
2022/09/09 10:09:32;;;;;;;5.82;3.10;;;;;;;29.77;50.26;100279.13;5031397;28;20025;-75
2022/09/09 10:12:33;;;;;;;8.10;3.20;;;;;;;29.22;53.94;100279.66;5035676;28;20136;-75
2022/09/09 10:15:31;;;;;;;5.78;3.30;;;;;;;29.86;50.07;100265.06;5045448;28;20033;-77
2022/09/09 10:18:34;;;;;;;5.47;3.83;;;;;;;29.60;56.20;100266.06;5050629;28;20033;-75
2022/09/09 10:21:41;;;;;;;7.72;3.50;;;;;;;29.64;53.56;100262.16;5051684;28;20029;-79
2022/09/09 10:24:18;;;;;;;17.70;4.85;;;;;;;30.28;54.51;100257.16;5048630;28;20044;-75
2022/09/09 10:26:52;;;;;;;7.53;3.47;;;;;;;29.77;51.05;100260.75;5032586;28;20105;-79
2022/09/09 10:29:37;;;;;;;6.78;3.75;;;;;;;29.81;56.99;100258.66;5030605;28;20033;-74
2022/09/09 10:32:05;;;;;;;14.05;4.22;;;;;;;29.61;55.45;100270.34;5032094;28;20026;-76
2022/09/09 10:34:47;;;;;;;5.53;3.40;;;;;;;30.24;55.19;100252.34;5031651;28;20052;-77
2022/09/09 10:37:42;;;;;;;8.30;4.03;;;;;;;30.57;52.04;100181.34;5031716;28;20029;-75
2022/09/09 10:40:26;;;;;;;27.63;5.00;;;;;;;31.10;50.57;100249.09;5031198;28;20045;-76
2022/09/09 10:43:04;;;;;;;9.90;4.63;;;;;;;30.28;50.08;100209.91;5049030;28;20036;-74
2022/09/09 10:45:45;;;;;;;9.70;4.18;;;;;;;30.67;48.94;100234.53;5052172;28;20025;-76
2022/09/09 10:48:10;;;;;;;8.03;3.70;;;;;;;30.33;52.06;100199.72;5043420;28;20057;-78
2022/09/09 10:50:56;;;;;;;8.95;3.83;;;;;;;30.76;49.96;100244.03;5031549;28;20307;-77
2022/09/09 10:53:28;;;;;;;8.38;3.80;;;;;;;30.39;53.67;100240.25;5042674;28;20052;-75
2022/09/09 10:56:00;;;;;;;5.30;3.55;;;;;;;29.83;57.42;100243.59;5044827;28;20033;-76
2022/09/09 10:58:34;;;;;;;7.00;4.00;;;;;;;30.53;54.40;100177.41;5051336;28;20025;-75
2022/09/09 11:01:07;;;;;;;5.22;3.90;;;;;;;30.91;51.23;100222.38;5050045;28;20059;-75
2022/09/09 11:03:39;;;;;;;10.82;3.33;;;;;;;30.55;48.95;100154.44;5049445;28;20036;-74
2022/09/09 11:06:10;;;;;;;9.10;3.95;;;;;;;31.16;50.79;100218.72;5054466;28;20501;-74
2022/09/09 11:08:39;;;;;;;8.23;4.03;;;;;;;30.31;54.02;100217.44;5054397;28;20029;-75
2022/09/09 11:11:11;;;;;;;16.85;4.43;;;;;;;30.65;52.07;100222.53;5054337;28;20268;-75
2022/09/09 11:13:45;;;;;;;5.45;3.58;;;;;;;30.65;50.96;100222.53;5052829;28;20028;-72
2022/09/09 11:16:34;;;;;;;14.82;4.32;;;;;;;30.91;52.80;100203.97;5052847;28;20039;-75
2022/09/09 11:19:35;;;;;;;4.95;3.50;;;;;;;30.96;51.26;100197.22;5053954;28;20117;-74
2022/09/09 11:22:52;;;;;;;6.45;3.60;;;;;;;31.66;48.11;100197.31;5054304;28;20033;-74
2022/09/09 11:25:33;;;;;;;4.85;3.58;;;;;;;31.61;49.05;100190.75;5031767;28;20499;-76
2022/09/09 11:28:20;;;;;;;11.30;4.70;;;;;;;31.31;49.97;100190.72;5054827;28;20101;-75
2022/09/09 11:30:52;;;;;;;7.45;3.67;;;;;;;31.91;47.60;100183.84;5054226;28;20021;-72
2022/09/09 11:33:43;;;;;;;11.57;3.80;;;;;;;31.70;49.64;100170.50;5052059;28;20148;-73
2022/09/09 11:36:38;;;;;;;;;;;;;;;30.61;51.33;100177.41;5046220;28;20026;-73
2022/09/09 11:39:21;;;;;;;6.90;3.70;;;;;;;31.04;51.37;100172.75;5052122;28;19952;-71
2022/09/09 11:41:46;;;;;;;27.75;18.73;;;;;;;31.66;49.24;100157.84;5053482;28;20055;-72